createdAt,value
2016-11-08T00:00:42.505Z,0
2016-11-08T00:01:55.543Z,0
2016-11-08T00:03:08.013Z,0
2016-11-08T00:04:21.428Z,0
2016-11-08T00:05:35.031Z,0
2016-11-08T00:06:48.370Z,0
2016-11-08T00:08:01.173Z,0
2016-11-08T00:09:14.739Z,0
2016-11-08T00:10:27.187Z,0
2016-11-08T00:11:40.757Z,0
2016-11-08T00:12:54.502Z,0
2016-11-08T00:14:07.100Z,0
2016-11-08T00:15:19.367Z,0
2016-11-08T00:16:32.681Z,0
2016-11-08T00:17:46.257Z,0
2016-11-08T00:18:59.869Z,0
2016-11-08T00:20:13.507Z,0
2016-11-08T00:21:26.552Z,0
2016-11-08T00:22:39.588Z,0
2016-11-08T00:23:52.552Z,0
2016-11-08T00:25:06.156Z,0
2016-11-08T00:26:19.259Z,0
2016-11-08T00:28:03.937Z,0
2016-11-08T00:29:17.485Z,0
2016-11-08T00:30:30.587Z,0
2016-11-08T00:31:44.227Z,0
2016-11-08T00:32:57.260Z,0
2016-11-08T00:34:10.297Z,0
2016-11-08T00:35:23.305Z,0
2016-11-08T00:36:36.334Z,0
2016-11-08T00:37:49.433Z,0
2016-11-08T00:39:02.924Z,0
2016-11-08T00:40:15.746Z,0
2016-11-08T00:41:29.358Z,0
2016-11-08T00:42:42.927Z,0
2016-11-08T00:43:56.007Z,0
2016-11-08T00:45:08.992Z,0
2016-11-08T00:46:22.360Z,0
2016-11-08T00:47:35.429Z,0
2016-11-08T00:48:48.496Z,0
2016-11-08T00:50:02.099Z,0
2016-11-08T00:51:15.163Z,0
2016-11-08T00:52:29.046Z,0
2016-11-08T00:53:42.694Z,0
2016-11-08T00:54:55.267Z,0
2016-11-08T00:56:08.834Z,0
2016-11-08T00:57:22.438Z,0
2016-11-08T00:58:35.524Z,0
2016-11-08T00:59:49.145Z,0
2016-11-08T01:01:02.204Z,0
2016-11-08T01:02:15.736Z,0
2016-11-08T01:03:28.780Z,0
2016-11-08T01:04:42.370Z,0
2016-11-08T01:05:55.955Z,0
2016-11-08T01:07:09.555Z,0
2016-11-08T01:08:23.069Z,0
2016-11-08T01:09:36.382Z,0
2016-11-08T01:10:50.000Z,0
2016-11-08T01:12:03.565Z,0
2016-11-08T01:13:17.234Z,0
2016-11-08T01:14:30.864Z,0
2016-11-08T01:15:43.992Z,0
2016-11-08T01:16:57.029Z,0
2016-11-08T01:18:10.419Z,0
2016-11-08T01:19:23.979Z,0
2016-11-08T01:20:37.548Z,0
2016-11-08T01:21:51.488Z,0
2016-11-08T01:23:04.566Z,0
2016-11-08T01:24:18.295Z,0
2016-11-08T01:25:31.649Z,0
2016-11-08T01:26:45.213Z,0
2016-11-08T01:27:58.965Z,0
2016-11-08T01:29:12.538Z,0
2016-11-08T01:30:25.630Z,0
2016-11-08T01:31:39.205Z,0
2016-11-08T01:32:52.799Z,0
2016-11-08T01:34:06.362Z,0
2016-11-08T01:35:19.430Z,0
2016-11-08T01:36:32.020Z,0
2016-11-08T01:37:44.708Z,0
2016-11-08T01:38:57.832Z,0
2016-11-08T01:40:11.423Z,0
2016-11-08T01:41:24.594Z,0
2016-11-08T01:42:38.211Z,0
2016-11-08T01:43:51.753Z,0
2016-11-08T01:45:05.319Z,0
2016-11-08T01:46:18.922Z,0
2016-11-08T01:47:32.461Z,0
2016-11-08T01:48:46.101Z,0
2016-11-08T01:49:59.663Z,0
2016-11-08T01:51:13.303Z,0
2016-11-08T01:52:26.870Z,0
2016-11-08T01:53:40.472Z,0
2016-11-08T01:54:53.479Z,0
2016-11-08T01:56:06.020Z,0
2016-11-08T01:57:19.573Z,0
2016-11-08T01:58:33.131Z,0
2016-11-08T01:59:45.676Z,0
2016-11-08T02:00:58.704Z,0
2016-11-08T02:02:12.270Z,0
2016-11-08T02:03:25.303Z,0
2016-11-08T02:04:38.902Z,0
2016-11-08T02:05:52.458Z,0
2016-11-08T02:07:05.994Z,0
2016-11-08T02:08:19.644Z,0
2016-11-08T02:09:32.172Z,0
2016-11-08T02:10:45.764Z,0
2016-11-08T02:11:58.306Z,0
2016-11-08T02:13:11.859Z,0
2016-11-08T02:14:25.470Z,0
2016-11-08T02:15:38.542Z,0
2016-11-08T02:16:51.658Z,0
2016-11-08T02:18:05.300Z,0
2016-11-08T02:19:18.906Z,0
2016-11-08T02:20:32.565Z,0
2016-11-08T02:21:45.662Z,0
2016-11-08T02:22:59.280Z,0
2016-11-08T02:24:12.349Z,0
2016-11-08T02:25:25.677Z,0
2016-11-08T02:26:39.331Z,0
2016-11-08T02:27:52.975Z,0
2016-11-08T02:29:06.575Z,0
2016-11-08T02:30:19.614Z,0
2016-11-08T02:31:32.873Z,0
2016-11-08T02:32:46.447Z,0
2016-11-08T02:34:00.023Z,0
2016-11-08T02:35:13.594Z,0
2016-11-08T02:36:26.155Z,0
2016-11-08T02:37:39.822Z,0
2016-11-08T02:38:53.447Z,0
2016-11-08T02:40:06.536Z,0
2016-11-08T02:41:20.057Z,0
2016-11-08T02:42:33.529Z,0
2016-11-08T02:43:47.083Z,0
2016-11-08T02:45:00.108Z,0
2016-11-08T02:46:13.593Z,0
2016-11-08T02:47:26.462Z,0
2016-11-08T02:48:39.727Z,0
2016-11-08T02:49:53.397Z,0
2016-11-08T02:51:07.016Z,0
2016-11-08T02:52:51.731Z,0
2016-11-08T02:54:05.308Z,0
2016-11-08T02:55:18.908Z,0
2016-11-08T02:56:32.529Z,0
2016-11-08T02:57:46.142Z,0
2016-11-08T02:58:59.628Z,0
2016-11-08T03:00:13.189Z,0
2016-11-08T03:01:26.200Z,0
2016-11-08T03:02:39.791Z,0
2016-11-08T03:03:52.808Z,0
2016-11-08T03:05:06.329Z,0
2016-11-08T03:06:19.812Z,0
2016-11-08T03:07:32.909Z,0
2016-11-08T03:08:46.490Z,0
2016-11-08T03:09:59.541Z,0
2016-11-08T03:11:13.152Z,0
2016-11-08T03:12:26.702Z,0
2016-11-08T03:13:40.275Z,0
2016-11-08T03:14:53.873Z,0
2016-11-08T03:16:06.948Z,0
2016-11-08T03:17:20.581Z,0
2016-11-08T03:18:34.143Z,0
2016-11-08T03:19:47.691Z,0
2016-11-08T03:21:01.323Z,0
2016-11-08T03:22:14.354Z,0
2016-11-08T03:23:27.636Z,0
2016-11-08T03:24:40.658Z,0
2016-11-08T03:25:54.663Z,0
2016-11-08T03:27:08.308Z,0
2016-11-08T03:28:21.888Z,0
2016-11-08T03:30:06.275Z,0
2016-11-08T03:31:19.892Z,0
2016-11-08T03:32:32.372Z,0
2016-11-08T03:33:45.933Z,0
2016-11-08T03:34:59.493Z,0
2016-11-08T03:36:12.532Z,0
2016-11-08T03:37:26.161Z,0
2016-11-08T03:38:39.780Z,0
2016-11-08T03:39:53.352Z,0
2016-11-08T03:41:06.938Z,0
2016-11-08T03:42:20.565Z,0
2016-11-08T03:44:04.712Z,0
2016-11-08T03:45:18.353Z,0
2016-11-08T03:46:31.964Z,0
2016-11-08T03:47:45.520Z,0
2016-11-08T03:48:59.128Z,0
2016-11-08T03:50:12.214Z,0
2016-11-08T03:51:25.743Z,0
2016-11-08T03:52:39.319Z,0
2016-11-08T03:53:52.947Z,0
2016-11-08T03:55:06.527Z,0
2016-11-08T03:56:20.099Z,0
2016-11-08T03:57:33.646Z,0
2016-11-08T03:58:47.308Z,0
2016-11-08T04:00:01.031Z,0
2016-11-08T04:01:14.719Z,0
2016-11-08T04:02:28.410Z,0
2016-11-08T04:03:41.827Z,0
2016-11-08T04:04:55.611Z,0
2016-11-08T04:06:09.264Z,0
2016-11-08T04:07:22.161Z,0
2016-11-08T04:08:35.310Z,0
2016-11-08T04:09:48.415Z,0
2016-11-08T04:11:02.075Z,0
2016-11-08T04:12:15.184Z,0
2016-11-08T04:13:28.981Z,0
2016-11-08T04:14:41.569Z,0
2016-11-08T04:15:55.195Z,0
2016-11-08T04:17:09.049Z,0
2016-11-08T04:18:22.712Z,0
2016-11-08T04:19:35.867Z,0
2016-11-08T04:20:49.412Z,0
2016-11-08T04:22:03.057Z,0
2016-11-08T04:23:16.734Z,0
2016-11-08T04:24:30.784Z,0
2016-11-08T04:25:44.393Z,0
2016-11-08T04:26:58.097Z,0
2016-11-08T04:28:11.322Z,0
2016-11-08T04:29:24.432Z,0
2016-11-08T04:30:38.072Z,0
2016-11-08T04:31:51.731Z,0
2016-11-08T04:33:04.857Z,0
2016-11-08T04:34:17.975Z,0
2016-11-08T04:35:31.897Z,0
2016-11-08T04:36:45.523Z,0
2016-11-08T04:37:58.924Z,0
2016-11-08T04:39:12.504Z,0
2016-11-08T04:40:26.149Z,0
2016-11-08T04:41:39.269Z,0
2016-11-08T04:42:52.901Z,0
2016-11-08T04:44:06.000Z,0
2016-11-08T04:45:19.598Z,0
2016-11-08T04:46:33.265Z,0
2016-11-08T04:47:46.856Z,0
2016-11-08T04:49:00.754Z,0
2016-11-08T04:50:14.431Z,0
2016-11-08T04:51:28.071Z,0
2016-11-08T04:52:41.728Z,0
2016-11-08T04:53:54.799Z,0
2016-11-08T04:55:08.517Z,0
2016-11-08T04:56:21.841Z,0
2016-11-08T04:57:35.501Z,0
2016-11-08T04:58:48.589Z,0
2016-11-08T05:00:02.176Z,0
2016-11-08T05:01:15.735Z,0
2016-11-08T05:02:28.435Z,0
2016-11-08T05:03:42.003Z,0
2016-11-08T05:04:55.127Z,0
2016-11-08T05:06:08.219Z,0
2016-11-08T05:07:21.782Z,0
2016-11-08T05:08:35.500Z,0
2016-11-08T05:09:49.148Z,0
2016-11-08T05:11:02.773Z,0
2016-11-08T05:12:16.456Z,0
2016-11-08T05:13:29.540Z,0
2016-11-08T05:14:42.590Z,0
2016-11-08T05:15:55.790Z,0
2016-11-08T05:17:08.905Z,0
2016-11-08T05:18:22.504Z,0
2016-11-08T05:19:36.165Z,0
2016-11-08T05:20:49.758Z,0
2016-11-08T05:22:02.773Z,0
2016-11-08T05:23:16.332Z,0
2016-11-08T05:24:29.872Z,0
2016-11-08T05:25:43.464Z,0
2016-11-08T05:26:56.719Z,0
2016-11-08T05:28:10.253Z,0
2016-11-08T05:29:23.830Z,0
2016-11-08T05:30:37.444Z,0
2016-11-08T05:31:50.560Z,0
2016-11-08T05:33:04.138Z,0
2016-11-08T05:34:17.680Z,0
2016-11-08T05:35:31.305Z,0
2016-11-08T05:36:44.908Z,0
2016-11-08T05:37:57.951Z,0
2016-11-08T05:39:11.549Z,0
2016-11-08T05:40:25.188Z,0
2016-11-08T05:41:38.797Z,0
2016-11-08T05:42:51.837Z,0
2016-11-08T05:44:04.069Z,0
2016-11-08T05:45:17.088Z,0
2016-11-08T05:46:30.749Z,0
2016-11-08T05:47:44.317Z,0
2016-11-08T05:48:57.910Z,0
2016-11-08T05:50:10.977Z,0
2016-11-08T05:51:24.676Z,0
2016-11-08T05:52:38.276Z,0
2016-11-08T05:53:51.552Z,0
2016-11-08T05:55:05.179Z,0
2016-11-08T05:56:18.799Z,0
2016-11-08T05:57:32.310Z,0
2016-11-08T05:58:45.783Z,0
2016-11-08T05:59:59.322Z,0
2016-11-08T06:01:12.885Z,0
2016-11-08T06:02:26.397Z,0
2016-11-08T06:03:40.002Z,0
2016-11-08T06:04:53.066Z,0
2016-11-08T06:06:06.477Z,0
2016-11-08T06:07:20.128Z,0
2016-11-08T06:09:04.274Z,0
2016-11-08T06:10:17.803Z,0
2016-11-08T06:11:30.860Z,0
2016-11-08T06:12:44.010Z,0
2016-11-08T06:13:56.572Z,0
2016-11-08T06:15:10.107Z,0
2016-11-08T06:16:23.774Z,0
2016-11-08T06:17:36.843Z,0
2016-11-08T06:18:50.432Z,0
2016-11-08T06:20:04.050Z,0
2016-11-08T06:21:17.070Z,0
2016-11-08T06:22:30.801Z,0
2016-11-08T06:23:44.056Z,0
2016-11-08T06:24:57.706Z,0
2016-11-08T06:26:10.803Z,0
2016-11-08T06:27:24.665Z,0
2016-11-08T06:28:38.141Z,0
2016-11-08T06:29:51.729Z,0
2016-11-08T06:31:04.809Z,0
2016-11-08T06:32:17.337Z,0
2016-11-08T06:33:30.429Z,0
2016-11-08T06:34:43.489Z,0
2016-11-08T06:35:56.545Z,0
2016-11-08T06:37:09.878Z,0
2016-11-08T06:38:22.397Z,0
2016-11-08T06:39:36.024Z,0
2016-11-08T06:40:49.091Z,0
2016-11-08T06:42:02.390Z,0
2016-11-08T06:45:00.770Z,0
2016-11-08T06:46:13.827Z,0
2016-11-08T06:47:26.906Z,0
2016-11-08T06:48:40.497Z,0
2016-11-08T06:49:53.997Z,0
2016-11-08T06:51:07.596Z,0
2016-11-08T06:52:20.627Z,0
2016-11-08T06:53:33.725Z,0
2016-11-08T06:54:47.313Z,0
2016-11-08T06:56:00.902Z,0
2016-11-08T06:57:14.509Z,0
2016-11-08T06:58:28.142Z,0
2016-11-08T06:59:41.726Z,0
2016-11-08T07:00:53.684Z,0
2016-11-08T07:02:06.194Z,0
2016-11-08T07:03:19.769Z,0
2016-11-08T07:04:33.319Z,0
2016-11-08T07:05:46.345Z,0
2016-11-08T07:06:59.969Z,0
2016-11-08T07:08:13.009Z,0
2016-11-08T07:09:26.122Z,0
2016-11-08T07:10:39.419Z,0
2016-11-08T07:11:52.480Z,0
2016-11-08T07:13:05.990Z,0
2016-11-08T07:14:19.049Z,0
2016-11-08T07:15:32.607Z,0
2016-11-08T07:16:45.694Z,0
2016-11-08T07:17:58.970Z,0
2016-11-08T07:19:12.550Z,0
2016-11-08T07:20:25.492Z,0
2016-11-08T07:21:38.777Z,0
2016-11-08T07:22:52.326Z,0
2016-11-08T07:24:05.946Z,0
2016-11-08T07:25:18.438Z,0
2016-11-08T07:26:31.904Z,0
2016-11-08T07:27:45.535Z,0
2016-11-08T07:28:58.563Z,0
2016-11-08T07:30:12.173Z,0
2016-11-08T07:31:25.738Z,0
2016-11-08T07:32:39.336Z,0
2016-11-08T07:33:52.123Z,0
2016-11-08T07:35:05.667Z,0
2016-11-08T07:36:19.325Z,0
2016-11-08T07:37:32.164Z,0
2016-11-08T07:38:45.828Z,0
2016-11-08T07:39:59.383Z,0
2016-11-08T07:41:12.989Z,0
2016-11-08T07:42:26.563Z,0
2016-11-08T07:43:39.557Z,0
2016-11-08T07:44:53.138Z,0
2016-11-08T07:46:06.693Z,0
2016-11-08T07:47:20.221Z,0
2016-11-08T07:48:33.215Z,0
2016-11-08T07:49:46.315Z,0
2016-11-08T07:50:59.904Z,0
2016-11-08T07:52:12.956Z,0
2016-11-08T07:53:26.503Z,0
2016-11-08T07:54:40.102Z,0
2016-11-08T07:55:53.703Z,0
2016-11-08T07:57:07.273Z,0
2016-11-08T07:58:20.858Z,0
2016-11-08T07:59:34.369Z,0
2016-11-08T08:00:47.895Z,0
2016-11-08T08:02:00.930Z,4
2016-11-08T08:03:14.485Z,0
2016-11-08T08:04:28.040Z,0
2016-11-08T08:05:41.660Z,0
2016-11-08T08:06:53.606Z,4
2016-11-08T08:08:07.344Z,0
2016-11-08T08:09:20.427Z,4
2016-11-08T08:10:33.500Z,4
2016-11-08T08:11:47.101Z,8
2016-11-08T08:13:31.883Z,12
2016-11-08T08:14:45.561Z,12
2016-11-08T08:15:58.664Z,12
2016-11-08T08:17:11.180Z,12
2016-11-08T08:18:24.881Z,16
2016-11-08T08:19:38.484Z,16
2016-11-08T08:20:52.123Z,20
2016-11-08T08:22:05.546Z,24
2016-11-08T08:23:19.103Z,28
2016-11-08T08:24:32.478Z,32
2016-11-08T08:25:46.133Z,32
2016-11-08T08:26:58.612Z,36
2016-11-08T08:28:12.263Z,40
2016-11-08T08:29:25.832Z,44
2016-11-08T08:30:39.385Z,48
2016-11-08T08:31:53.009Z,52
2016-11-08T08:33:06.063Z,56
2016-11-08T08:34:19.095Z,60
2016-11-08T08:35:32.736Z,64
2016-11-08T08:36:45.716Z,68
2016-11-08T08:37:59.323Z,80
2016-11-08T08:39:12.951Z,92
2016-11-08T08:40:25.941Z,92
2016-11-08T08:41:39.448Z,100
2016-11-08T08:42:52.976Z,108
2016-11-08T08:44:05.970Z,112
2016-11-08T08:45:18.653Z,112
2016-11-08T08:46:31.776Z,116
2016-11-08T08:47:45.361Z,120
2016-11-08T08:48:58.953Z,144
2016-11-08T08:50:12.310Z,156
2016-11-08T08:51:25.897Z,172
2016-11-08T08:52:38.926Z,180
2016-11-08T08:53:52.556Z,184
2016-11-08T08:55:06.157Z,196
2016-11-08T08:56:19.217Z,224
2016-11-08T08:57:32.736Z,228
2016-11-08T08:58:46.296Z,232
2016-11-08T08:59:59.286Z,232
2016-11-08T09:01:12.847Z,280
2016-11-08T09:02:25.844Z,312
2016-11-08T09:03:38.891Z,276
2016-11-08T09:04:52.452Z,280
2016-11-08T09:06:05.983Z,328
2016-11-08T09:07:19.595Z,328
2016-11-08T09:08:33.149Z,356
2016-11-08T09:09:46.184Z,360
2016-11-08T09:10:59.768Z,320
2016-11-08T09:12:13.357Z,352
2016-11-08T09:13:27.011Z,396
2016-11-08T09:14:40.654Z,356
2016-11-08T09:15:53.921Z,348
2016-11-08T09:17:07.441Z,332
2016-11-08T09:18:21.030Z,404
2016-11-08T09:19:34.647Z,472
2016-11-08T09:20:47.187Z,460
2016-11-08T09:22:00.861Z,432
2016-11-08T09:23:14.454Z,388
2016-11-08T09:24:28.106Z,432
2016-11-08T09:25:41.704Z,464
2016-11-08T09:26:54.692Z,456
2016-11-08T09:28:08.067Z,460
2016-11-08T09:29:21.638Z,440
2016-11-08T09:30:34.651Z,444
2016-11-08T09:31:47.970Z,436
2016-11-08T09:33:01.513Z,544
2016-11-08T09:34:14.622Z,588
2016-11-08T09:35:27.524Z,548
2016-11-08T09:36:41.118Z,520
2016-11-08T09:37:54.782Z,576
2016-11-08T09:39:08.364Z,612
2016-11-08T09:40:21.959Z,652
2016-11-08T09:41:35.490Z,724
2016-11-08T09:42:49.042Z,700
2016-11-08T09:44:02.625Z,680
2016-11-08T09:45:16.209Z,676
2016-11-08T09:46:29.792Z,772
2016-11-08T09:48:14.518Z,820
2016-11-08T09:49:28.103Z,796
2016-11-08T09:50:41.247Z,764
2016-11-08T09:51:54.814Z,756
2016-11-08T09:53:07.545Z,660
2016-11-08T09:54:20.103Z,624
2016-11-08T09:55:32.581Z,600
2016-11-08T09:56:46.139Z,580
2016-11-08T09:57:59.743Z,556
2016-11-08T09:59:12.859Z,556
2016-11-08T10:00:26.171Z,480
2016-11-08T10:01:39.260Z,504
2016-11-08T10:02:52.808Z,584
2016-11-08T10:04:05.854Z,532
2016-11-08T10:05:19.395Z,488
2016-11-08T10:06:32.443Z,604
2016-11-08T10:07:45.518Z,796
2016-11-08T10:08:59.099Z,736
2016-11-08T10:10:12.519Z,696
2016-11-08T10:11:25.563Z,824
2016-11-08T10:12:39.130Z,804
2016-11-08T10:13:52.650Z,744
2016-11-08T10:15:06.234Z,648
2016-11-08T10:16:18.736Z,512
2016-11-08T10:17:31.758Z,548
2016-11-08T10:18:45.279Z,584
2016-11-08T10:19:58.997Z,544
2016-11-08T10:21:12.548Z,568
2016-11-08T10:22:26.045Z,604
2016-11-08T10:23:39.655Z,728
2016-11-08T10:24:53.275Z,656
2016-11-08T10:26:06.868Z,668
2016-11-08T10:27:20.504Z,640
2016-11-08T10:28:34.139Z,612
2016-11-08T10:29:47.562Z,592
2016-11-08T10:31:01.207Z,652
2016-11-08T10:32:14.257Z,736
2016-11-08T10:33:27.796Z,692
2016-11-08T10:34:41.130Z,620
2016-11-08T10:35:54.187Z,604
2016-11-08T10:37:07.289Z,592
2016-11-08T10:38:20.578Z,584
2016-11-08T10:39:34.213Z,608
2016-11-08T10:41:18.858Z,708
2016-11-08T10:42:32.401Z,696
2016-11-08T10:43:46.021Z,764
2016-11-08T10:44:59.670Z,768
2016-11-08T10:46:12.736Z,716
2016-11-08T10:47:26.068Z,708
2016-11-08T10:48:39.146Z,712
2016-11-08T10:49:52.331Z,736
2016-11-08T10:51:06.055Z,792
2016-11-08T10:52:19.346Z,900
2016-11-08T10:53:32.904Z,880
2016-11-08T10:54:46.458Z,808
2016-11-08T10:55:59.502Z,888
2016-11-08T10:57:13.124Z,1012
2016-11-08T10:58:26.745Z,984
2016-11-08T10:59:40.346Z,892
2016-11-08T11:00:53.972Z,900
2016-11-08T11:02:07.107Z,844
2016-11-08T11:03:20.712Z,780
2016-11-08T11:04:34.301Z,776
2016-11-08T11:05:47.369Z,748
2016-11-08T11:07:00.961Z,692
2016-11-08T11:08:14.561Z,672
2016-11-08T11:09:28.092Z,656
2016-11-08T11:10:41.714Z,664
2016-11-08T11:11:55.310Z,728
2016-11-08T11:13:08.904Z,804
2016-11-08T11:14:22.187Z,848
2016-11-08T11:16:06.335Z,1044
2016-11-08T11:17:19.929Z,792
2016-11-08T11:18:32.941Z,784
2016-11-08T11:19:46.299Z,816
2016-11-08T11:20:59.450Z,820
2016-11-08T11:22:13.052Z,724
2016-11-08T11:23:25.602Z,740
2016-11-08T11:24:38.124Z,748
2016-11-08T11:25:51.706Z,708
2016-11-08T11:27:06.070Z,776
2016-11-08T11:28:18.546Z,864
2016-11-08T11:29:32.093Z,820
2016-11-08T11:30:45.676Z,828
2016-11-08T11:31:59.308Z,848
2016-11-08T11:33:12.826Z,896
2016-11-08T11:34:26.445Z,888
2016-11-08T11:35:40.094Z,860
2016-11-08T11:36:53.670Z,836
2016-11-08T11:38:07.284Z,860
2016-11-08T11:39:20.875Z,856
2016-11-08T11:40:34.149Z,828
2016-11-08T11:41:47.705Z,808
2016-11-08T11:43:01.177Z,784
2016-11-08T11:44:14.211Z,780
2016-11-08T11:45:27.906Z,780
2016-11-08T11:46:40.940Z,780
2016-11-08T11:47:54.814Z,796
2016-11-08T11:49:08.417Z,844
2016-11-08T11:50:21.966Z,896
2016-11-08T11:51:35.589Z,876
2016-11-08T11:52:49.118Z,824
2016-11-08T11:54:02.472Z,800
2016-11-08T11:55:15.568Z,784
2016-11-08T11:56:29.231Z,780
2016-11-08T11:57:42.773Z,784
2016-11-08T11:58:56.322Z,792
2016-11-08T12:00:09.436Z,784
2016-11-08T12:01:23.081Z,788
2016-11-08T12:02:36.572Z,792
2016-11-08T12:03:50.239Z,808
2016-11-08T12:05:02.726Z,812
2016-11-08T12:06:16.248Z,800
2016-11-08T12:07:29.879Z,784
2016-11-08T12:08:43.433Z,780
2016-11-08T12:09:56.471Z,792
2016-11-08T12:11:09.493Z,800
2016-11-08T12:12:23.067Z,824
2016-11-08T12:13:36.148Z,840
2016-11-08T12:14:49.678Z,844
2016-11-08T12:16:03.222Z,848
2016-11-08T12:17:16.253Z,852
2016-11-08T12:18:29.844Z,840
2016-11-08T12:19:42.386Z,824
2016-11-08T12:20:55.988Z,848
2016-11-08T12:22:08.988Z,884
2016-11-08T12:23:21.958Z,844
2016-11-08T12:24:35.028Z,840
2016-11-08T12:25:48.624Z,824
2016-11-08T12:27:01.673Z,856
2016-11-08T12:28:14.953Z,872
2016-11-08T12:29:28.497Z,884
2016-11-08T12:30:41.794Z,892
2016-11-08T12:31:55.199Z,896
2016-11-08T12:33:08.770Z,908
2016-11-08T12:34:21.875Z,920
2016-11-08T12:35:35.696Z,968
2016-11-08T12:36:49.233Z,1024
2016-11-08T12:38:02.813Z,1104
2016-11-08T12:39:16.376Z,1176
2016-11-08T12:40:29.935Z,1264
2016-11-08T12:41:43.851Z,1380
2016-11-08T12:42:57.473Z,1504
2016-11-08T12:44:11.103Z,1664
2016-11-08T12:45:23.974Z,1848
2016-11-08T12:46:36.982Z,2044
2016-11-08T12:47:50.298Z,2268
2016-11-08T12:49:03.879Z,2508
2016-11-08T12:50:16.941Z,2764
2016-11-08T12:51:29.986Z,3036
2016-11-08T12:52:43.586Z,3292
2016-11-08T12:53:57.134Z,3548
2016-11-08T12:55:10.725Z,3844
2016-11-08T12:56:24.306Z,4120
2016-11-08T12:57:37.918Z,4372
2016-11-08T12:58:51.726Z,4568
2016-11-08T13:00:05.364Z,4716
2016-11-08T13:01:19.063Z,4788
2016-11-08T13:02:32.651Z,4876
2016-11-08T13:03:46.234Z,4916
2016-11-08T13:04:59.229Z,4980
2016-11-08T13:06:12.871Z,5032
2016-11-08T13:07:26.428Z,5088
2016-11-08T13:08:40.013Z,5148
2016-11-08T13:09:53.558Z,5196
2016-11-08T13:11:07.202Z,5248
2016-11-08T13:12:20.754Z,5296
2016-11-08T13:13:34.325Z,5348
2016-11-08T13:14:47.957Z,5404
2016-11-08T13:16:01.651Z,5444
2016-11-08T13:17:15.252Z,5488
2016-11-08T13:18:29.127Z,5528
2016-11-08T13:19:42.762Z,5572
2016-11-08T13:20:56.622Z,5572
2016-11-08T13:22:10.143Z,5652
2016-11-08T13:23:23.684Z,5704
2016-11-08T13:24:37.236Z,5760
2016-11-08T13:25:50.580Z,5824
2016-11-08T13:27:04.199Z,5936
2016-11-08T13:28:17.784Z,5972
2016-11-08T13:29:31.283Z,6028
2016-11-08T13:30:44.930Z,6076
2016-11-08T13:31:58.487Z,6120
2016-11-08T13:33:12.099Z,6168
2016-11-08T13:34:25.776Z,6188
2016-11-08T13:35:39.312Z,6264
2016-11-08T13:36:52.901Z,6344
2016-11-08T13:38:06.499Z,6348
2016-11-08T13:39:20.144Z,6408
2016-11-08T13:40:32.634Z,6508
2016-11-08T13:41:45.961Z,6564
2016-11-08T13:42:59.308Z,6592
2016-11-08T13:44:12.886Z,6596
2016-11-08T13:45:25.982Z,6684
2016-11-08T13:46:38.476Z,6688
2016-11-08T13:47:52.091Z,6784
2016-11-08T13:49:35.719Z,6832
2016-11-08T13:50:48.783Z,6892
2016-11-08T13:52:01.898Z,6948
2016-11-08T13:53:15.471Z,7004
2016-11-08T13:54:27.909Z,7040
2016-11-08T13:55:41.490Z,7072
2016-11-08T13:56:55.050Z,7044
2016-11-08T13:58:08.659Z,7044
2016-11-08T13:59:21.738Z,7064
2016-11-08T14:00:34.816Z,7116
2016-11-08T14:01:47.972Z,7248
2016-11-08T14:03:01.081Z,7416
2016-11-08T14:04:14.690Z,7452
2016-11-08T14:05:28.276Z,7448
2016-11-08T14:06:41.801Z,7444
2016-11-08T14:07:55.469Z,7468
2016-11-08T14:09:09.005Z,7484
2016-11-08T14:10:22.610Z,7520
2016-11-08T14:11:35.930Z,7696
2016-11-08T14:12:48.950Z,3700
2016-11-08T14:14:02.543Z,7752
2016-11-08T14:15:16.145Z,8024
2016-11-08T14:16:29.657Z,1868
2016-11-08T14:17:42.656Z,7764
2016-11-08T14:18:56.295Z,7896
2016-11-08T14:20:09.914Z,7976
2016-11-08T14:21:22.915Z,8216
2016-11-08T14:22:36.531Z,8336
2016-11-08T14:23:49.701Z,8340
2016-11-08T14:25:03.321Z,8484
2016-11-08T14:26:16.941Z,8360
2016-11-08T14:27:30.519Z,8400
2016-11-08T14:28:43.578Z,8660
2016-11-08T14:29:57.226Z,8928
2016-11-08T14:31:10.240Z,8848
2016-11-08T14:32:23.905Z,9276
2016-11-08T14:33:36.983Z,9352
2016-11-08T14:34:50.151Z,6180
2016-11-08T14:36:02.951Z,7848
2016-11-08T14:37:16.041Z,9416
2016-11-08T14:38:29.087Z,4600
2016-11-08T14:39:42.174Z,9408
2016-11-08T14:40:55.496Z,9352
2016-11-08T14:42:09.068Z,9240
2016-11-08T14:43:22.685Z,9496
2016-11-08T14:44:35.788Z,9236
2016-11-08T14:45:49.327Z,9368
2016-11-08T14:47:02.680Z,9452
2016-11-08T14:48:16.299Z,9604
2016-11-08T14:49:29.910Z,9592
2016-11-08T14:50:43.483Z,9660
2016-11-08T14:51:56.557Z,9788
2016-11-08T14:53:09.646Z,9880
2016-11-08T14:54:22.738Z,10060
2016-11-08T14:55:36.005Z,10116
2016-11-08T14:56:49.611Z,10192
2016-11-08T14:58:03.198Z,10336
2016-11-08T14:59:16.558Z,10192
2016-11-08T15:00:29.006Z,10148
2016-11-08T15:01:42.568Z,9784
2016-11-08T15:02:56.258Z,1132
2016-11-08T15:04:09.820Z,1096
2016-11-08T15:05:22.381Z,1136
2016-11-08T15:06:35.947Z,1104
2016-11-08T15:07:49.032Z,1056
2016-11-08T15:09:02.129Z,1036
2016-11-08T15:10:15.743Z,1088
2016-11-08T15:11:28.816Z,1152
2016-11-08T15:12:42.508Z,1316
2016-11-08T15:13:55.537Z,1344
2016-11-08T15:15:09.109Z,1508
2016-11-08T15:16:22.647Z,2764
2016-11-08T15:17:35.489Z,10152
2016-11-08T15:18:49.136Z,2456
2016-11-08T15:20:02.156Z,2744
2016-11-08T15:21:15.669Z,10328
2016-11-08T15:22:29.287Z,10600
2016-11-08T15:23:42.322Z,1504
2016-11-08T15:24:55.930Z,5716
2016-11-08T15:26:09.497Z,2880
2016-11-08T15:27:23.051Z,10004
2016-11-08T15:28:36.163Z,10352
2016-11-08T15:29:49.178Z,10400
2016-11-08T15:31:01.732Z,10592
2016-11-08T15:32:14.856Z,10984
2016-11-08T15:33:28.116Z,2028
2016-11-08T15:34:41.216Z,1944
2016-11-08T15:35:54.930Z,1488
2016-11-08T15:37:08.569Z,1236
2016-11-08T15:38:22.201Z,1172
2016-11-08T15:39:35.777Z,1280
2016-11-08T15:40:49.378Z,10312
2016-11-08T15:42:02.949Z,10808
2016-11-08T15:43:16.540Z,10800
2016-11-08T15:44:28.999Z,11020
2016-11-08T15:45:42.579Z,11004
2016-11-08T15:46:56.138Z,10960
2016-11-08T15:48:09.156Z,10960
2016-11-08T15:49:22.473Z,11108
2016-11-08T15:50:35.552Z,11224
2016-11-08T15:51:48.078Z,6076
2016-11-08T15:53:01.489Z,10484
2016-11-08T15:54:15.043Z,2984
2016-11-08T15:55:59.450Z,1144
2016-11-08T15:57:13.067Z,968
2016-11-08T15:58:26.107Z,936
2016-11-08T16:01:24.482Z,1004
2016-11-08T16:02:37.558Z,1412
2016-11-08T16:03:51.149Z,3400
2016-11-08T16:05:04.739Z,7772
2016-11-08T16:06:18.623Z,10564
2016-11-08T16:07:31.242Z,10628
2016-11-08T16:08:43.748Z,10924
2016-11-08T16:09:57.709Z,11060
2016-11-08T16:11:11.342Z,2248
2016-11-08T16:12:24.399Z,10396
2016-11-08T16:13:37.991Z,10580
2016-11-08T16:14:51.839Z,10692
2016-11-08T16:16:05.455Z,10488
2016-11-08T16:17:19.152Z,10424
2016-11-08T16:19:03.296Z,10576
2016-11-08T16:20:16.282Z,10856
2016-11-08T16:21:29.832Z,10892
2016-11-08T16:22:42.855Z,10912
2016-11-08T16:23:55.935Z,11036
2016-11-08T16:25:09.002Z,10892
2016-11-08T16:26:22.582Z,1820
2016-11-08T16:27:36.193Z,2168
2016-11-08T16:28:49.269Z,1860
2016-11-08T16:30:02.870Z,1512
2016-11-08T16:31:16.420Z,1420
2016-11-08T16:32:29.936Z,1512
2016-11-08T16:33:43.551Z,1976
2016-11-08T16:34:56.650Z,9644
2016-11-08T16:36:10.183Z,2212
2016-11-08T16:37:24.221Z,1796
2016-11-08T16:38:37.330Z,1460
2016-11-08T16:39:50.894Z,1508
2016-11-08T16:41:04.246Z,1564
2016-11-08T16:42:17.829Z,2144
2016-11-08T16:43:31.468Z,4192
2016-11-08T16:44:44.833Z,3212
2016-11-08T16:45:58.066Z,1864
2016-11-08T16:47:11.656Z,1904
2016-11-08T16:48:25.031Z,2036
2016-11-08T16:49:38.608Z,2512
2016-11-08T16:50:52.289Z,2804
2016-11-08T16:52:36.973Z,6168
2016-11-08T16:53:50.620Z,9344
2016-11-08T16:55:04.188Z,10660
2016-11-08T16:56:17.220Z,10452
2016-11-08T16:57:30.661Z,10608
2016-11-08T16:58:43.739Z,10604
2016-11-08T16:59:56.801Z,2576
2016-11-08T17:01:09.836Z,10320
2016-11-08T17:02:22.953Z,10368
2016-11-08T17:03:36.587Z,10436
2016-11-08T17:04:50.252Z,10312
2016-11-08T17:06:03.845Z,6248
2016-11-08T17:07:16.410Z,1484
2016-11-08T17:08:30.028Z,1520
2016-11-08T17:09:43.059Z,1548
2016-11-08T17:10:56.679Z,1528
2016-11-08T17:12:10.060Z,1468
2016-11-08T17:13:23.639Z,1508
2016-11-08T17:14:36.518Z,1396
2016-11-08T17:15:50.062Z,1364
2016-11-08T17:17:03.633Z,1428
2016-11-08T17:18:16.641Z,1508
2016-11-08T17:19:30.238Z,1636
2016-11-08T17:20:43.901Z,2344
2016-11-08T17:21:57.572Z,2116
2016-11-08T17:23:10.669Z,2740